sensor_id;sensor_type;location;lat;lon;timestamp;P1;durP1;ratioP1;P2;durP2;ratioP2
35887;SDS011;21990;42.540;23.496;2023-07-31T00:00:04;20.55;;;3.55;;
35887;SDS011;21990;42.540;23.496;2023-07-31T00:02:31;8.85;;;3.85;;
35887;SDS011;21990;42.540;23.496;2023-07-31T00:04:56;7.03;;;3.83;;
35887;SDS011;21990;42.540;23.496;2023-07-31T00:07:22;9.40;;;3.58;;
35887;SDS011;21990;42.540;23.496;2023-07-31T00:09:47;10.00;;;3.75;;
35887;SDS011;21990;42.540;23.496;2023-07-31T00:12:13;8.82;;;3.90;;
35887;SDS011;21990;42.540;23.496;2023-07-31T00:14:38;11.05;;;3.58;;
35887;SDS011;21990;42.540;23.496;2023-07-31T00:17:04;21.52;;;4.30;;
35887;SDS011;21990;42.540;23.496;2023-07-31T00:19:30;13.90;;;4.25;;
35887;SDS011;21990;42.540;23.496;2023-07-31T00:21:55;11.35;;;3.97;;
35887;SDS011;21990;42.540;23.496;2023-07-31T00:24:21;11.82;;;3.85;;
35887;SDS011;21990;42.540;23.496;2023-07-31T00:26:46;9.20;;;3.80;;
35887;SDS011;21990;42.540;23.496;2023-07-31T00:29:12;11.15;;;4.10;;
35887;SDS011;21990;42.540;23.496;2023-07-31T00:31:37;13.95;;;4.32;;
35887;SDS011;21990;42.540;23.496;2023-07-31T00:34:03;12.80;;;4.45;;
35887;SDS011;21990;42.540;23.496;2023-07-31T00:36:28;22.77;;;4.20;;
35887;SDS011;21990;42.540;23.496;2023-07-31T00:38:54;16.23;;;4.70;;
35887;SDS011;21990;42.540;23.496;2023-07-31T00:41:19;19.25;;;4.65;;
35887;SDS011;21990;42.540;23.496;2023-07-31T00:43:45;12.38;;;3.65;;
35887;SDS011;21990;42.540;23.496;2023-07-31T00:46:10;11.40;;;4.03;;
35887;SDS011;21990;42.540;23.496;2023-07-31T00:48:36;22.95;;;4.30;;
35887;SDS011;21990;42.540;23.496;2023-07-31T00:51:04;9.02;;;3.15;;
35887;SDS011;21990;42.540;23.496;2023-07-31T00:53:29;9.13;;;3.67;;
35887;SDS011;21990;42.540;23.496;2023-07-31T00:55:55;9.60;;;3.67;;
35887;SDS011;21990;42.540;23.496;2023-07-31T00:58:21;21.63;;;4.03;;
35887;SDS011;21990;42.540;23.496;2023-07-31T01:00:47;13.07;;;4.00;;
35887;SDS011;21990;42.540;23.496;2023-07-31T01:03:12;12.15;;;3.47;;
35887;SDS011;21990;42.540;23.496;2023-07-31T01:05:56;13.60;;;4.20;;
35887;SDS011;21990;42.540;23.496;2023-07-31T01:11:15;9.98;;;3.80;;
35887;SDS011;21990;42.540;23.496;2023-07-31T01:13:44;27.02;;;3.72;;
35887;SDS011;21990;42.540;23.496;2023-07-31T01:16:11;16.77;;;4.03;;
35887;SDS011;21990;42.540;23.496;2023-07-31T01:18:37;10.75;;;3.50;;
35887;SDS011;21990;42.540;23.496;2023-07-31T01:26:28;10.02;;;3.75;;
35887;SDS011;21990;42.540;23.496;2023-07-31T01:31:32;15.00;;;3.90;;
35887;SDS011;21990;42.540;23.496;2023-07-31T01:34:00;12.40;;;3.78;;
35887;SDS011;21990;42.540;23.496;2023-07-31T01:36:26;10.50;;;3.40;;
35887;SDS011;21990;42.540;23.496;2023-07-31T01:38:57;10.93;;;4.10;;
35887;SDS011;21990;42.540;23.496;2023-07-31T01:41:24;8.93;;;4.05;;
35887;SDS011;21990;42.540;23.496;2023-07-31T01:43:49;11.25;;;4.10;;
35887;SDS011;21990;42.540;23.496;2023-07-31T01:46:15;11.10;;;3.47;;
35887;SDS011;21990;42.540;23.496;2023-07-31T01:48:40;8.40;;;3.75;;
35887;SDS011;21990;42.540;23.496;2023-07-31T01:51:06;8.70;;;4.35;;
35887;SDS011;21990;42.540;23.496;2023-07-31T01:53:31;13.07;;;3.55;;
35887;SDS011;21990;42.540;23.496;2023-07-31T01:55:57;11.60;;;4.00;;
35887;SDS011;21990;42.540;23.496;2023-07-31T01:58:22;13.25;;;4.00;;
35887;SDS011;21990;42.540;23.496;2023-07-31T02:00:48;11.30;;;3.78;;
35887;SDS011;21990;42.540;23.496;2023-07-31T02:03:14;6.05;;;3.67;;
35887;SDS011;21990;42.540;23.496;2023-07-31T02:05:46;8.70;;;3.63;;
35887;SDS011;21990;42.540;23.496;2023-07-31T02:08:14;13.30;;;3.88;;
35887;SDS011;21990;42.540;23.496;2023-07-31T02:10:41;6.25;;;4.00;;
35887;SDS011;21990;42.540;23.496;2023-07-31T02:13:06;12.27;;;3.78;;
35887;SDS011;21990;42.540;23.496;2023-07-31T02:15:32;8.77;;;4.15;;
35887;SDS011;21990;42.540;23.496;2023-07-31T02:17:58;10.48;;;4.45;;
35887;SDS011;21990;42.540;23.496;2023-07-31T02:20:24;6.30;;;4.40;;
35887;SDS011;21990;42.540;23.496;2023-07-31T02:22:49;11.00;;;3.97;;
35887;SDS011;21990;42.540;23.496;2023-07-31T02:25:15;7.43;;;4.20;;
35887;SDS011;21990;42.540;23.496;2023-07-31T02:27:41;7.82;;;4.18;;
35887;SDS011;21990;42.540;23.496;2023-07-31T02:30:07;5.97;;;4.03;;
35887;SDS011;21990;42.540;23.496;2023-07-31T02:32:32;14.23;;;4.20;;
35887;SDS011;21990;42.540;23.496;2023-07-31T02:34:58;8.50;;;3.67;;
35887;SDS011;21990;42.540;23.496;2023-07-31T02:37:24;10.93;;;3.95;;
35887;SDS011;21990;42.540;23.496;2023-07-31T02:39:50;9.15;;;4.25;;
35887;SDS011;21990;42.540;23.496;2023-07-31T02:42:15;5.95;;;3.58;;
35887;SDS011;21990;42.540;23.496;2023-07-31T02:44:41;17.30;;;4.28;;
35887;SDS011;21990;42.540;23.496;2023-07-31T02:47:07;5.63;;;4.05;;
35887;SDS011;21990;42.540;23.496;2023-07-31T02:49:32;9.85;;;4.60;;
35887;SDS011;21990;42.540;23.496;2023-07-31T02:51:58;5.82;;;4.13;;
35887;SDS011;21990;42.540;23.496;2023-07-31T02:54:23;12.77;;;5.05;;
35887;SDS011;21990;42.540;23.496;2023-07-31T02:56:51;10.07;;;5.07;;
35887;SDS011;21990;42.540;23.496;2023-07-31T02:59:17;7.43;;;5.05;;
35887;SDS011;21990;42.540;23.496;2023-07-31T03:01:46;10.45;;;4.82;;
35887;SDS011;21990;42.540;23.496;2023-07-31T03:04:11;8.75;;;5.00;;
35887;SDS011;21990;42.540;23.496;2023-07-31T03:06:37;6.45;;;4.88;;
35887;SDS011;21990;42.540;23.496;2023-07-31T03:09:02;8.93;;;4.53;;
35887;SDS011;21990;42.540;23.496;2023-07-31T03:11:28;6.90;;;5.45;;
35887;SDS011;21990;42.540;23.496;2023-07-31T03:13:53;7.25;;;5.47;;
35887;SDS011;21990;42.540;23.496;2023-07-31T03:16:19;9.00;;;7.35;;
35887;SDS011;21990;42.540;23.496;2023-07-31T03:18:45;11.55;;;8.63;;
35887;SDS011;21990;42.540;23.496;2023-07-31T03:21:10;11.48;;;8.50;;
35887;SDS011;21990;42.540;23.496;2023-07-31T03:23:38;11.07;;;8.43;;
35887;SDS011;21990;42.540;23.496;2023-07-31T03:26:06;11.68;;;8.48;;
35887;SDS011;21990;42.540;23.496;2023-07-31T03:28:32;14.23;;;8.43;;
35887;SDS011;21990;42.540;23.496;2023-07-31T03:30:58;17.70;;;8.80;;
35887;SDS011;21990;42.540;23.496;2023-07-31T03:33:24;10.48;;;8.52;;
35887;SDS011;21990;42.540;23.496;2023-07-31T03:35:49;16.48;;;9.50;;
35887;SDS011;21990;42.540;23.496;2023-07-31T03:38:15;20.52;;;8.90;;
35887;SDS011;21990;42.540;23.496;2023-07-31T03:40:41;15.93;;;8.50;;
35887;SDS011;21990;42.540;23.496;2023-07-31T03:43:06;13.55;;;8.82;;
35887;SDS011;21990;42.540;23.496;2023-07-31T03:45:32;12.63;;;7.70;;
35887;SDS011;21990;42.540;23.496;2023-07-31T03:47:57;11.35;;;8.60;;
35887;SDS011;21990;42.540;23.496;2023-07-31T03:50:23;12.80;;;8.27;;
35887;SDS011;21990;42.540;23.496;2023-07-31T03:52:50;11.40;;;8.07;;
35887;SDS011;21990;42.540;23.496;2023-07-31T03:55:15;17.52;;;8.45;;
35887;SDS011;21990;42.540;23.496;2023-07-31T03:57:41;11.25;;;8.15;;
35887;SDS011;21990;42.540;23.496;2023-07-31T04:00:07;10.90;;;6.78;;
35887;SDS011;21990;42.540;23.496;2023-07-31T04:02:33;11.05;;;8.25;;
35887;SDS011;21990;42.540;23.496;2023-07-31T04:04:58;16.13;;;8.32;;
35887;SDS011;21990;42.540;23.496;2023-07-31T04:07:24;10.88;;;7.53;;
35887;SDS011;21990;42.540;23.496;2023-07-31T04:09:49;11.40;;;8.35;;
35887;SDS011;21990;42.540;23.496;2023-07-31T04:12:15;13.50;;;7.80;;
35887;SDS011;21990;42.540;23.496;2023-07-31T04:14:40;11.88;;;8.85;;
35887;SDS011;21990;42.540;23.496;2023-07-31T04:17:06;11.13;;;9.00;;
35887;SDS011;21990;42.540;23.496;2023-07-31T04:19:31;13.13;;;9.43;;
35887;SDS011;21990;42.540;23.496;2023-07-31T04:21:57;20.90;;;11.70;;
35887;SDS011;21990;42.540;23.496;2023-07-31T04:24:23;17.42;;;12.25;;
35887;SDS011;21990;42.540;23.496;2023-07-31T04:26:51;29.05;;;11.63;;
35887;SDS011;21990;42.540;23.496;2023-07-31T04:29:17;28.50;;;19.63;;
35887;SDS011;21990;42.540;23.496;2023-07-31T04:31:43;34.75;;;24.08;;
35887;SDS011;21990;42.540;23.496;2023-07-31T04:34:09;34.88;;;25.58;;
35887;SDS011;21990;42.540;23.496;2023-07-31T04:36:35;42.58;;;28.80;;
35887;SDS011;21990;42.540;23.496;2023-07-31T04:39:00;40.13;;;28.15;;
35887;SDS011;21990;42.540;23.496;2023-07-31T04:41:26;42.08;;;27.67;;
35887;SDS011;21990;42.540;23.496;2023-07-31T04:43:52;40.20;;;28.00;;
35887;SDS011;21990;42.540;23.496;2023-07-31T04:46:17;43.92;;;27.80;;
35887;SDS011;21990;42.540;23.496;2023-07-31T04:48:43;41.22;;;28.75;;
35887;SDS011;21990;42.540;23.496;2023-07-31T04:51:09;39.67;;;27.92;;
35887;SDS011;21990;42.540;23.496;2023-07-31T04:53:34;38.28;;;28.02;;
35887;SDS011;21990;42.540;23.496;2023-07-31T04:56:03;41.80;;;27.83;;
35887;SDS011;21990;42.540;23.496;2023-07-31T04:58:29;37.47;;;27.52;;
35887;SDS011;21990;42.540;23.496;2023-07-31T05:00:54;42.22;;;28.90;;
35887;SDS011;21990;42.540;23.496;2023-07-31T05:03:20;35.45;;;25.27;;
35887;SDS011;21990;42.540;23.496;2023-07-31T05:05:45;34.85;;;25.92;;
35887;SDS011;21990;42.540;23.496;2023-07-31T05:08:11;38.50;;;24.73;;
35887;SDS011;21990;42.540;23.496;2023-07-31T05:10:37;34.97;;;24.98;;
35887;SDS011;21990;42.540;23.496;2023-07-31T05:13:02;32.30;;;23.48;;
35887;SDS011;21990;42.540;23.496;2023-07-31T05:15:28;25.55;;;18.52;;
35887;SDS011;21990;42.540;23.496;2023-07-31T05:17:54;28.40;;;20.38;;
35887;SDS011;21990;42.540;23.496;2023-07-31T05:20:20;28.58;;;19.70;;
35887;SDS011;21990;42.540;23.496;2023-07-31T05:22:46;23.05;;;18.23;;
35887;SDS011;21990;42.540;23.496;2023-07-31T05:25:11;28.90;;;17.42;;
35887;SDS011;21990;42.540;23.496;2023-07-31T05:27:37;24.90;;;17.55;;
35887;SDS011;21990;42.540;23.496;2023-07-31T05:30:02;21.05;;;16.13;;
35887;SDS011;21990;42.540;23.496;2023-07-31T05:32:28;21.90;;;15.77;;
35887;SDS011;21990;42.540;23.496;2023-07-31T05:34:54;18.60;;;15.32;;
35887;SDS011;21990;42.540;23.496;2023-07-31T05:37:20;19.00;;;14.57;;
35887;SDS011;21990;42.540;23.496;2023-07-31T05:39:45;21.67;;;14.23;;
35887;SDS011;21990;42.540;23.496;2023-07-31T05:42:11;19.63;;;14.57;;
35887;SDS011;21990;42.540;23.496;2023-07-31T05:44:36;18.15;;;14.05;;
35887;SDS011;21990;42.540;23.496;2023-07-31T05:47:02;22.38;;;14.70;;
35887;SDS011;21990;42.540;23.496;2023-07-31T05:49:27;21.83;;;13.48;;
35887;SDS011;21990;42.540;23.496;2023-07-31T05:51:53;17.92;;;13.10;;
35887;SDS011;21990;42.540;23.496;2023-07-31T05:54:19;15.90;;;12.52;;
35887;SDS011;21990;42.540;23.496;2023-07-31T05:56:44;18.90;;;12.85;;
35887;SDS011;21990;42.540;23.496;2023-07-31T05:59:11;15.75;;;11.57;;
35887;SDS011;21990;42.540;23.496;2023-07-31T06:01:38;15.65;;;12.30;;
35887;SDS011;21990;42.540;23.496;2023-07-31T06:04:03;18.20;;;12.73;;
35887;SDS011;21990;42.540;23.496;2023-07-31T06:06:29;16.95;;;12.85;;
35887;SDS011;21990;42.540;23.496;2023-07-31T06:08:54;14.35;;;11.85;;
35887;SDS011;21990;42.540;23.496;2023-07-31T06:11:21;15.95;;;11.82;;
35887;SDS011;21990;42.540;23.496;2023-07-31T06:13:46;13.57;;;10.50;;
35887;SDS011;21990;42.540;23.496;2023-07-31T06:16:13;13.77;;;10.88;;
35887;SDS011;21990;42.540;23.496;2023-07-31T06:18:40;13.40;;;10.85;;
35887;SDS011;21990;42.540;23.496;2023-07-31T06:21:06;15.85;;;10.65;;
35887;SDS011;21990;42.540;23.496;2023-07-31T06:23:31;11.55;;;9.50;;
35887;SDS011;21990;42.540;23.496;2023-07-31T06:25:57;12.60;;;9.98;;
35887;SDS011;21990;42.540;23.496;2023-07-31T06:28:29;12.38;;;8.98;;
35887;SDS011;21990;42.540;23.496;2023-07-31T06:30:55;9.48;;;8.43;;
35887;SDS011;21990;42.540;23.496;2023-07-31T06:33:21;15.00;;;8.63;;
35887;SDS011;21990;42.540;23.496;2023-07-31T06:35:47;10.55;;;7.68;;
35887;SDS011;21990;42.540;23.496;2023-07-31T06:38:12;12.25;;;6.35;;
35887;SDS011;21990;42.540;23.496;2023-07-31T06:40:38;8.48;;;6.68;;
35887;SDS011;21990;42.540;23.496;2023-07-31T06:43:04;10.25;;;6.45;;
35887;SDS011;21990;42.540;23.496;2023-07-31T06:45:36;8.25;;;6.25;;
35887;SDS011;21990;42.540;23.496;2023-07-31T06:48:03;6.97;;;6.05;;
35887;SDS011;21990;42.540;23.496;2023-07-31T06:50:29;7.93;;;6.03;;
35887;SDS011;21990;42.540;23.496;2023-07-31T06:52:56;11.23;;;5.38;;
35887;SDS011;21990;42.540;23.496;2023-07-31T06:55:22;7.95;;;5.00;;
35887;SDS011;21990;42.540;23.496;2023-07-31T06:57:48;8.05;;;4.32;;
35887;SDS011;21990;42.540;23.496;2023-07-31T07:00:15;5.80;;;4.22;;
35887;SDS011;21990;42.540;23.496;2023-07-31T07:02:42;5.63;;;4.18;;
35887;SDS011;21990;42.540;23.496;2023-07-31T07:05:07;6.25;;;4.03;;
35887;SDS011;21990;42.540;23.496;2023-07-31T07:07:34;4.90;;;4.00;;
35887;SDS011;21990;42.540;23.496;2023-07-31T07:10:00;8.40;;;3.78;;
35887;SDS011;21990;42.540;23.496;2023-07-31T07:12:28;4.60;;;3.72;;
35887;SDS011;21990;42.540;23.496;2023-07-31T07:14:55;11.80;;;4.10;;
35887;SDS011;21990;42.540;23.496;2023-07-31T07:17:20;5.05;;;3.40;;
35887;SDS011;21990;42.540;23.496;2023-07-31T07:19:47;11.05;;;3.10;;
35887;SDS011;21990;42.540;23.496;2023-07-31T07:22:13;10.93;;;3.20;;
35887;SDS011;21990;42.540;23.496;2023-07-31T07:24:38;13.27;;;3.47;;
35887;SDS011;21990;42.540;23.496;2023-07-31T07:27:04;6.40;;;3.50;;
35887;SDS011;21990;42.540;23.496;2023-07-31T07:29:30;8.15;;;3.50;;
35887;SDS011;21990;42.540;23.496;2023-07-31T07:31:55;5.07;;;3.30;;
35887;SDS011;21990;42.540;23.496;2023-07-31T07:34:25;9.30;;;2.80;;
35887;SDS011;21990;42.540;23.496;2023-07-31T07:36:51;5.13;;;2.78;;
35887;SDS011;21990;42.540;23.496;2023-07-31T07:39:17;6.05;;;2.92;;
35887;SDS011;21990;42.540;23.496;2023-07-31T07:41:43;6.15;;;2.80;;
35887;SDS011;21990;42.540;23.496;2023-07-31T07:44:08;5.93;;;2.72;;
35887;SDS011;21990;42.540;23.496;2023-07-31T07:46:34;3.75;;;2.60;;
35887;SDS011;21990;42.540;23.496;2023-07-31T07:48:59;6.13;;;2.95;;
35887;SDS011;21990;42.540;23.496;2023-07-31T07:51:25;4.35;;;2.65;;
35887;SDS011;21990;42.540;23.496;2023-07-31T07:53:51;3.45;;;2.45;;
35887;SDS011;21990;42.540;23.496;2023-07-31T07:56:16;6.45;;;2.33;;
35887;SDS011;21990;42.540;23.496;2023-07-31T07:58:42;4.70;;;2.78;;
35887;SDS011;21990;42.540;23.496;2023-07-31T08:01:07;6.03;;;2.58;;
35887;SDS011;21990;42.540;23.496;2023-07-31T08:03:33;3.25;;;2.10;;
35887;SDS011;21990;42.540;23.496;2023-07-31T08:05:59;6.50;;;2.53;;
35887;SDS011;21990;42.540;23.496;2023-07-31T08:08:25;3.63;;;2.28;;
35887;SDS011;21990;42.540;23.496;2023-07-31T08:10:52;5.05;;;2.17;;
35887;SDS011;21990;42.540;23.496;2023-07-31T08:13:17;7.47;;;2.35;;
35887;SDS011;21990;42.540;23.496;2023-07-31T08:15:43;7.00;;;2.22;;
35887;SDS011;21990;42.540;23.496;2023-07-31T08:18:09;4.88;;;2.30;;
35887;SDS011;21990;42.540;23.496;2023-07-31T08:20:36;3.47;;;2.17;;
35887;SDS011;21990;42.540;23.496;2023-07-31T08:23:02;3.55;;;2.20;;
35887;SDS011;21990;42.540;23.496;2023-07-31T08:25:28;4.53;;;2.20;;
35887;SDS011;21990;42.540;23.496;2023-07-31T08:27:54;4.05;;;2.20;;
35887;SDS011;21990;42.540;23.496;2023-07-31T08:30:20;3.67;;;2.25;;
35887;SDS011;21990;42.540;23.496;2023-07-31T08:32:46;4.82;;;2.05;;
35887;SDS011;21990;42.540;23.496;2023-07-31T08:35:12;3.08;;;2.25;;
35887;SDS011;21990;42.540;23.496;2023-07-31T08:37:38;4.30;;;2.33;;
35887;SDS011;21990;42.540;23.496;2023-07-31T08:40:04;8.18;;;2.08;;
35887;SDS011;21990;42.540;23.496;2023-07-31T08:42:31;5.00;;;2.30;;
35887;SDS011;21990;42.540;23.496;2023-07-31T08:44:57;4.78;;;2.28;;
35887;SDS011;21990;42.540;23.496;2023-07-31T08:47:25;3.85;;;2.22;;
35887;SDS011;21990;42.540;23.496;2023-07-31T08:49:51;3.55;;;1.83;;
35887;SDS011;21990;42.540;23.496;2023-07-31T08:52:18;5.90;;;1.90;;
35887;SDS011;21990;42.540;23.496;2023-07-31T08:54:43;6.15;;;2.47;;
35887;SDS011;21990;42.540;23.496;2023-07-31T08:57:09;2.88;;;2.20;;
35887;SDS011;21990;42.540;23.496;2023-07-31T08:59:36;3.28;;;2.28;;
35887;SDS011;21990;42.540;23.496;2023-07-31T09:02:05;11.10;;;2.13;;
35887;SDS011;21990;42.540;23.496;2023-07-31T09:04:33;3.67;;;2.03;;
35887;SDS011;21990;42.540;23.496;2023-07-31T09:07:02;4.43;;;2.08;;
35887;SDS011;21990;42.540;23.496;2023-07-31T09:09:30;3.38;;;1.88;;
35887;SDS011;21990;42.540;23.496;2023-07-31T09:11:58;5.00;;;2.05;;
35887;SDS011;21990;42.540;23.496;2023-07-31T09:14:24;1.92;;;1.67;;
35887;SDS011;21990;42.540;23.496;2023-07-31T09:16:51;9.95;;;2.03;;
35887;SDS011;21990;42.540;23.496;2023-07-31T09:19:25;3.10;;;2.15;;
35887;SDS011;21990;42.540;23.496;2023-07-31T09:21:55;10.35;;;2.25;;
35887;SDS011;21990;42.540;23.496;2023-07-31T09:24:30;3.17;;;1.90;;
35887;SDS011;21990;42.540;23.496;2023-07-31T09:26:57;13.35;;;2.30;;
35887;SDS011;21990;42.540;23.496;2023-07-31T09:29:24;3.55;;;1.92;;
35887;SDS011;21990;42.540;23.496;2023-07-31T09:31:51;2.70;;;2.00;;
35887;SDS011;21990;42.540;23.496;2023-07-31T09:34:17;4.45;;;2.15;;
35887;SDS011;21990;42.540;23.496;2023-07-31T09:36:44;3.53;;;1.98;;
35887;SDS011;21990;42.540;23.496;2023-07-31T09:39:12;5.30;;;2.50;;
35887;SDS011;21990;42.540;23.496;2023-07-31T09:41:39;3.15;;;2.08;;
35887;SDS011;21990;42.540;23.496;2023-07-31T09:44:07;5.45;;;2.00;;
35887;SDS011;21990;42.540;23.496;2023-07-31T09:46:35;4.07;;;2.13;;
35887;SDS011;21990;42.540;23.496;2023-07-31T09:51:39;3.25;;;2.28;;
35887;SDS011;21990;42.540;23.496;2023-07-31T09:54:12;4.97;;;1.85;;
35887;SDS011;21990;42.540;23.496;2023-07-31T09:56:43;6.90;;;2.22;;
35887;SDS011;21990;42.540;23.496;2023-07-31T09:59:17;2.65;;;1.58;;
35887;SDS011;21990;42.540;23.496;2023-07-31T10:01:45;3.77;;;2.17;;
35887;SDS011;21990;42.540;23.496;2023-07-31T10:04:12;5.72;;;1.95;;
35887;SDS011;21990;42.540;23.496;2023-07-31T10:06:39;4.38;;;1.98;;
35887;SDS011;21990;42.540;23.496;2023-07-31T10:09:09;4.90;;;2.05;;
35887;SDS011;21990;42.540;23.496;2023-07-31T10:11:47;5.72;;;2.03;;
35887;SDS011;21990;42.540;23.496;2023-07-31T10:14:18;3.30;;;2.10;;
35887;SDS011;21990;42.540;23.496;2023-07-31T10:16:45;3.08;;;1.80;;
35887;SDS011;21990;42.540;23.496;2023-07-31T10:19:12;4.75;;;1.80;;
35887;SDS011;21990;42.540;23.496;2023-07-31T10:21:37;6.47;;;1.80;;
35887;SDS011;21990;42.540;23.496;2023-07-31T10:24:04;4.20;;;2.00;;
35887;SDS011;21990;42.540;23.496;2023-07-31T10:26:31;5.13;;;2.10;;
35887;SDS011;21990;42.540;23.496;2023-07-31T10:28:57;2.65;;;1.75;;
35887;SDS011;21990;42.540;23.496;2023-07-31T10:31:24;2.85;;;2.20;;
35887;SDS011;21990;42.540;23.496;2023-07-31T10:33:50;3.42;;;2.08;;
35887;SDS011;21990;42.540;23.496;2023-07-31T10:36:18;3.22;;;2.03;;
35887;SDS011;21990;42.540;23.496;2023-07-31T10:38:44;5.85;;;2.35;;
35887;SDS011;21990;42.540;23.496;2023-07-31T10:41:11;5.47;;;2.00;;
35887;SDS011;21990;42.540;23.496;2023-07-31T10:43:37;5.88;;;2.17;;
35887;SDS011;21990;42.540;23.496;2023-07-31T10:46:06;10.13;;;2.67;;
35887;SDS011;21990;42.540;23.496;2023-07-31T10:48:34;11.45;;;2.97;;
35887;SDS011;21990;42.540;23.496;2023-07-31T10:51:02;12.70;;;3.10;;
35887;SDS011;21990;42.540;23.496;2023-07-31T10:53:35;8.27;;;2.70;;
35887;SDS011;21990;42.540;23.496;2023-07-31T10:56:10;4.15;;;2.47;;
35887;SDS011;21990;42.540;23.496;2023-07-31T10:58:44;4.22;;;2.25;;
35887;SDS011;21990;42.540;23.496;2023-07-31T11:01:11;4.88;;;2.00;;
35887;SDS011;21990;42.540;23.496;2023-07-31T11:06:08;8.40;;;2.17;;
35887;SDS011;21990;42.540;23.496;2023-07-31T11:08:35;3.05;;;1.85;;
35887;SDS011;21990;42.540;23.496;2023-07-31T11:11:06;5.03;;;1.95;;
35887;SDS011;21990;42.540;23.496;2023-07-31T11:13:39;7.55;;;1.70;;
35887;SDS011;21990;42.540;23.496;2023-07-31T11:16:05;8.77;;;1.83;;
35887;SDS011;21990;42.540;23.496;2023-07-31T11:18:31;3.75;;;1.80;;
35887;SDS011;21990;42.540;23.496;2023-07-31T11:20:56;2.88;;;1.60;;
35887;SDS011;21990;42.540;23.496;2023-07-31T11:23:22;2.60;;;1.60;;
35887;SDS011;21990;42.540;23.496;2023-07-31T11:25:48;4.90;;;2.05;;
35887;SDS011;21990;42.540;23.496;2023-07-31T11:28:15;6.05;;;1.80;;
35887;SDS011;21990;42.540;23.496;2023-07-31T11:30:42;6.13;;;2.00;;
35887;SDS011;21990;42.540;23.496;2023-07-31T11:33:10;4.30;;;1.70;;
35887;SDS011;21990;42.540;23.496;2023-07-31T11:35:43;4.95;;;1.90;;
35887;SDS011;21990;42.540;23.496;2023-07-31T11:40:54;2.50;;;1.77;;
35887;SDS011;21990;42.540;23.496;2023-07-31T11:43:21;5.88;;;1.60;;
35887;SDS011;21990;42.540;23.496;2023-07-31T11:45:47;2.45;;;1.50;;
35887;SDS011;21990;42.540;23.496;2023-07-31T11:50:46;7.75;;;1.70;;
35887;SDS011;21990;42.540;23.496;2023-07-31T11:53:12;2.45;;;1.80;;
35887;SDS011;21990;42.540;23.496;2023-07-31T11:55:38;5.82;;;1.60;;
35887;SDS011;21990;42.540;23.496;2023-07-31T11:58:04;2.60;;;1.85;;
35887;SDS011;21990;42.540;23.496;2023-07-31T12:00:30;1.80;;;1.20;;
35887;SDS011;21990;42.540;23.496;2023-07-31T12:02:56;3.40;;;1.75;;
35887;SDS011;21990;42.540;23.496;2023-07-31T12:05:22;3.45;;;1.63;;
35887;SDS011;21990;42.540;23.496;2023-07-31T12:07:52;5.32;;;1.40;;
35887;SDS011;21990;42.540;23.496;2023-07-31T12:12:59;2.97;;;1.60;;
35887;SDS011;21990;42.540;23.496;2023-07-31T12:15:32;1.52;;;1.23;;
35887;SDS011;21990;42.540;23.496;2023-07-31T12:18:09;4.68;;;1.60;;
35887;SDS011;21990;42.540;23.496;2023-07-31T12:20:43;4.13;;;1.60;;
35887;SDS011;21990;42.540;23.496;2023-07-31T12:23:16;4.68;;;1.40;;
35887;SDS011;21990;42.540;23.496;2023-07-31T12:25:43;5.20;;;1.73;;
35887;SDS011;21990;42.540;23.496;2023-07-31T12:28:09;1.58;;;1.40;;
35887;SDS011;21990;42.540;23.496;2023-07-31T12:30:39;2.17;;;1.48;;
35887;SDS011;21990;42.540;23.496;2023-07-31T12:33:15;6.13;;;1.60;;
35887;SDS011;21990;42.540;23.496;2023-07-31T12:35:44;5.85;;;1.58;;
35887;SDS011;21990;42.540;23.496;2023-07-31T12:38:14;6.07;;;1.30;;
35887;SDS011;21990;42.540;23.496;2023-07-31T12:40:40;2.80;;;1.75;;
35887;SDS011;21990;42.540;23.496;2023-07-31T12:43:07;3.05;;;1.70;;
35887;SDS011;21990;42.540;23.496;2023-07-31T12:45:34;8.85;;;1.88;;
35887;SDS011;21990;42.540;23.496;2023-07-31T12:48:00;6.20;;;1.80;;
35887;SDS011;21990;42.540;23.496;2023-07-31T12:50:26;4.55;;;1.77;;
35887;SDS011;21990;42.540;23.496;2023-07-31T12:52:56;7.05;;;2.08;;
35887;SDS011;21990;42.540;23.496;2023-07-31T12:55:22;4.70;;;1.60;;
35887;SDS011;21990;42.540;23.496;2023-07-31T12:57:49;3.50;;;1.80;;
35887;SDS011;21990;42.540;23.496;2023-07-31T13:00:15;5.20;;;2.28;;
35887;SDS011;21990;42.540;23.496;2023-07-31T13:02:41;3.53;;;1.98;;
35887;SDS011;21990;42.540;23.496;2023-07-31T13:05:06;4.25;;;1.98;;
35887;SDS011;21990;42.540;23.496;2023-07-31T13:07:32;4.35;;;2.13;;
35887;SDS011;21990;42.540;23.496;2023-07-31T13:09:58;8.07;;;2.20;;
35887;SDS011;21990;42.540;23.496;2023-07-31T13:12:23;4.50;;;2.90;;
35887;SDS011;21990;42.540;23.496;2023-07-31T13:14:50;5.53;;;2.83;;
35887;SDS011;21990;42.540;23.496;2023-07-31T13:17:16;6.57;;;3.30;;
35887;SDS011;21990;42.540;23.496;2023-07-31T13:19:41;7.97;;;3.03;;
35887;SDS011;21990;42.540;23.496;2023-07-31T13:22:07;3.28;;;2.97;;
35887;SDS011;21990;42.540;23.496;2023-07-31T13:24:33;4.45;;;3.20;;
35887;SDS011;21990;42.540;23.496;2023-07-31T13:26:58;3.42;;;3.10;;
35887;SDS011;21990;42.540;23.496;2023-07-31T13:29:24;9.18;;;2.90;;
35887;SDS011;21990;42.540;23.496;2023-07-31T13:31:50;6.78;;;3.20;;
35887;SDS011;21990;42.540;23.496;2023-07-31T13:34:17;5.15;;;3.05;;
35887;SDS011;21990;42.540;23.496;2023-07-31T13:36:42;5.40;;;3.38;;
35887;SDS011;21990;42.540;23.496;2023-07-31T13:39:08;5.88;;;3.45;;
35887;SDS011;21990;42.540;23.496;2023-07-31T13:41:34;4.63;;;2.95;;
35887;SDS011;21990;42.540;23.496;2023-07-31T13:43:59;4.95;;;3.65;;
35887;SDS011;21990;42.540;23.496;2023-07-31T13:46:25;7.68;;;3.80;;
35887;SDS011;21990;42.540;23.496;2023-07-31T13:48:50;4.57;;;3.70;;
35887;SDS011;21990;42.540;23.496;2023-07-31T13:51:19;5.55;;;3.50;;
35887;SDS011;21990;42.540;23.496;2023-07-31T13:53:45;4.28;;;3.80;;
35887;SDS011;21990;42.540;23.496;2023-07-31T13:56:10;5.75;;;4.25;;
35887;SDS011;21990;42.540;23.496;2023-07-31T13:58:36;5.05;;;3.97;;
35887;SDS011;21990;42.540;23.496;2023-07-31T14:01:02;6.05;;;4.00;;
35887;SDS011;21990;42.540;23.496;2023-07-31T14:03:28;5.78;;;4.00;;
35887;SDS011;21990;42.540;23.496;2023-07-31T14:05:54;5.72;;;3.88;;
35887;SDS011;21990;42.540;23.496;2023-07-31T14:08:20;10.18;;;3.78;;
35887;SDS011;21990;42.540;23.496;2023-07-31T14:10:46;6.20;;;3.30;;
35887;SDS011;21990;42.540;23.496;2023-07-31T14:13:12;6.22;;;3.60;;
35887;SDS011;21990;42.540;23.496;2023-07-31T14:15:38;6.55;;;3.70;;
35887;SDS011;21990;42.540;23.496;2023-07-31T14:18:04;8.95;;;3.53;;
35887;SDS011;21990;42.540;23.496;2023-07-31T14:20:29;6.25;;;3.40;;
35887;SDS011;21990;42.540;23.496;2023-07-31T14:22:55;8.18;;;3.30;;
35887;SDS011;21990;42.540;23.496;2023-07-31T14:25:21;5.18;;;3.50;;
35887;SDS011;21990;42.540;23.496;2023-07-31T14:27:46;4.90;;;3.45;;
35887;SDS011;21990;42.540;23.496;2023-07-31T14:30:12;6.25;;;3.35;;
35887;SDS011;21990;42.540;23.496;2023-07-31T14:32:37;4.32;;;3.42;;
35887;SDS011;21990;42.540;23.496;2023-07-31T14:35:03;8.90;;;3.50;;
35887;SDS011;21990;42.540;23.496;2023-07-31T14:37:50;9.02;;;3.20;;
35887;SDS011;21990;42.540;23.496;2023-07-31T14:40:14;6.07;;;3.45;;
35887;SDS011;21990;42.540;23.496;2023-07-31T14:42:40;3.50;;;2.72;;
35887;SDS011;21990;42.540;23.496;2023-07-31T14:45:06;5.78;;;2.97;;
35887;SDS011;21990;42.540;23.496;2023-07-31T14:47:32;9.13;;;3.40;;